Time;durP1;ratioP1;P1;durP2;ratioP2;P2;SDS_P1;SDS_P2;PMS_P1;PMS_P2;Temp;Humidity;BMP_temperature;BMP_pressure;BME280_temperature;BME280_humidity;BME280_pressure;Samples;Min_cycle;Max_cycle;Signal;HPM_P1;HPM_P2
2021/03/10 00:01:19;;;;;;;40.95;25.88;;;5.10;97.30;;;;;;5035838;28;20377;-71
2021/03/10 00:03:44;;;;;;;41.92;25.63;;;5.00;97.60;;;;;;5035697;28;20160;-71
2021/03/10 00:06:10;;;;;;;41.78;26.10;;;4.80;97.10;;;;;;5017990;28;20080;-70
2021/03/10 00:08:36;;;;;;;42.33;24.88;;;4.90;96.90;;;;;;5034170;28;20120;-71
2021/03/10 00:11:02;;;;;;;45.17;25.98;;;5.00;96.60;;;;;;5035332;28;20128;-71
2021/03/10 00:13:28;;;;;;;42.00;26.40;;;5.10;96.20;;;;;;5035127;28;20033;-71
2021/03/10 00:15:53;;;;;;;39.55;26.30;;;4.90;97.80;;;;;;5035201;28;20504;-71
2021/03/10 00:18:19;;;;;;;40.10;26.40;;;4.90;97.40;;;;;;5035058;28;20053;-71
2021/03/10 00:20:45;;;;;;;41.22;26.33;;;4.90;95.80;;;;;;5035180;28;20064;-71
2021/03/10 00:23:11;;;;;;;44.67;26.23;;;4.90;96.60;;;;;;5035048;28;20084;-71
2021/03/10 00:25:37;;;;;;;40.67;26.10;;;5.00;96.30;;;;;;5034715;28;20045;-71
2021/03/10 00:28:02;;;;;;;39.08;25.95;;;4.80;96.80;;;;;;5034692;28;20120;-71
2021/03/10 00:30:28;;;;;;;43.38;27.02;;;4.80;98.60;;;;;;5034909;28;20021;-71
2021/03/10 00:32:54;;;;;;;42.45;25.90;;;4.80;97.60;;;;;;5034972;28;20049;-71
2021/03/10 00:35:20;;;;;;;42.30;27.02;;;4.80;97.90;;;;;;5034619;28;20040;-71
2021/03/10 00:37:46;;;;;;;44.13;26.45;;;4.80;97.40;;;;;;5035508;28;20151;-71
2021/03/10 00:40:11;;;;;;;43.00;26.23;;;4.90;96.30;;;;;;5034582;28;20508;-71
2021/03/10 00:42:37;;;;;;;42.78;26.42;;;4.90;96.60;;;;;;5034767;28;20052;-71
2021/03/10 00:45:04;;;;;;;41.33;26.98;;;4.90;96.80;;;;;;5034776;28;20037;-71
2021/03/10 00:47:30;;;;;;;41.92;26.92;;;4.90;96.70;;;;;;5035396;28;20112;-71
2021/03/10 00:49:57;;;;;;;42.90;26.80;;;4.90;96.30;;;;;;5034748;28;20147;-71
2021/03/10 00:52:23;;;;;;;40.28;27.02;;;4.90;97.40;;;;;;5034712;28;20095;-71
2021/03/10 00:54:49;;;;;;;42.80;27.27;;;5.00;96.00;;;;;;5034400;28;20057;-70
2021/03/10 00:57:15;;;;;;;42.72;27.50;;;5.00;96.30;;;;;;5034278;28;20072;-71
2021/03/10 00:59:40;;;;;;;42.95;27.08;;;4.80;95.90;;;;;;5034882;28;20056;-70
2021/03/10 01:02:06;;;;;;;45.80;27.45;;;4.90;96.10;;;;;;5034206;28;20538;-70
2021/03/10 01:04:32;;;;;;;43.45;27.55;;;4.70;99.10;;;;;;5033255;28;20060;-71
2021/03/10 01:06:58;;;;;;;40.08;26.60;;;4.70;97.00;;;;;;5033753;28;20091;-71
2021/03/10 01:09:24;;;;;;;43.15;27.13;;;4.70;96.90;;;;;;5034911;28;20033;-71
2021/03/10 01:11:49;;;;;;;41.53;27.45;;;4.70;97.50;;;;;;5033296;28;20033;-71
2021/03/10 01:14:15;;;;;;;46.42;27.48;;;4.60;97.40;;;;;;5034313;28;20392;-71
2021/03/10 01:16:41;;;;;;;44.33;26.95;;;4.50;98.00;;;;;;5034136;28;20056;-71
2021/03/10 01:19:07;;;;;;;48.40;28.27;;;4.60;98.10;;;;;;5034167;28;20065;-71
2021/03/10 01:21:33;;;;;;;43.65;28.33;;;4.50;99.90;;;;;;5034163;28;20073;-71
2021/03/10 01:23:59;;;;;;;46.78;28.15;;;4.60;98.60;;;;;;5033940;28;20400;-71
2021/03/10 01:26:25;;;;;;;44.83;28.85;;;4.60;99.40;;;;;;5033915;28;20045;-71
2021/03/10 01:28:51;;;;;;;42.92;28.63;;;4.70;99.60;;;;;;5034379;28;20038;-71
2021/03/10 01:31:17;;;;;;;43.45;27.48;;;4.50;98.90;;;;;;5034290;28;20160;-71
2021/03/10 01:33:42;;;;;;;43.83;28.60;;;4.50;99.40;;;;;;5033944;28;20512;-71
2021/03/10 01:36:08;;;;;;;45.15;26.85;;;4.50;99.50;;;;;;5036607;28;20508;-70
2021/03/10 01:38:34;;;;;;;44.60;28.35;;;4.80;97.40;;;;;;5038191;28;20041;-71
2021/03/10 01:41:00;;;;;;;44.42;28.52;;;4.60;98.10;;;;;;5037924;28;20041;-71
2021/03/10 01:43:26;;;;;;;40.88;26.05;;;4.60;98.70;;;;;;5037613;28;20065;-70
2021/03/10 01:45:52;;;;;;;41.40;26.77;;;4.70;96.20;;;;;;5037856;28;20056;-70
2021/03/10 01:48:22;;;;;;;39.47;26.52;;;4.80;96.20;;;;;;5038184;28;20030;-70
2021/03/10 01:50:48;;;;;;;39.43;26.13;;;4.90;94.60;;;;;;5037692;28;20120;-70
2021/03/10 01:53:14;;;;;;;42.22;26.90;;;4.90;94.70;;;;;;5037980;28;20326;-71
2021/03/10 01:55:40;;;;;;;44.10;28.02;;;4.80;95.60;;;;;;5037619;28;20095;-71
2021/03/10 01:58:06;;;;;;;44.35;27.33;;;4.70;96.50;;;;;;5037791;28;20045;-71
2021/03/10 02:00:33;;;;;;;43.42;28.27;;;4.50;97.20;;;;;;5038271;28;20068;-71
2021/03/10 02:02:58;;;;;;;42.03;27.17;;;4.70;97.60;;;;;;5037709;28;20045;-71
2021/03/10 02:05:26;;;;;;;43.67;26.83;;;4.60;98.60;;;;;;5037724;28;20511;-71
2021/03/10 02:08:20;;;;;;;40.67;26.65;;;4.50;98.80;;;;;;5038040;28;20064;-71
2021/03/10 02:11:30;;;;;;;40.65;26.42;;;4.70;96.90;;;;;;5038087;28;20038;-71
2021/03/10 02:14:23;;;;;;;47.30;26.80;;;4.70;96.80;;;;;;4937588;29;20051;-71
2021/03/10 02:16:59;;;;;;;40.45;26.25;;;4.70;98.30;;;;;;4937595;29;20178;-71
2021/03/10 02:19:59;;;;;;;42.22;27.33;;;4.60;97.50;;;;;;5009130;28;20045;-71
2021/03/10 02:22:59;;;;;;;45.00;27.33;;;4.50;97.90;;;;;;5020018;28;20049;-71
2021/03/10 02:25:46;;;;;;;41.55;26.55;;;4.80;95.00;;;;;;5037896;28;20128;-71
2021/03/10 02:28:12;;;;;;;39.35;26.65;;;4.90;95.60;;;;;;5037361;28;20052;-71
2021/03/10 02:30:40;;;;;;;40.47;26.63;;;4.80;95.40;;;;;;5036986;28;20042;-71
2021/03/10 02:33:10;;;;;;;41.42;27.23;;;4.80;95.30;;;;;;5037496;28;20041;-71
2021/03/10 02:35:41;;;;;;;41.40;27.33;;;4.70;96.30;;;;;;5037589;28;20060;-71
2021/03/10 02:38:09;;;;;;;43.58;26.40;;;4.60;96.90;;;;;;5037676;28;20484;-71
2021/03/10 02:40:39;;;;;;;40.55;26.60;;;4.50;98.30;;;;;;5036805;28;20068;-71
2021/03/10 02:43:06;;;;;;;40.95;27.35;;;4.40;98.10;;;;;;5037035;28;20037;-71
2021/03/10 02:45:33;;;;;;;42.85;27.63;;;4.50;99.40;;;;;;5036963;28;20038;-71
2021/03/10 02:48:01;;;;;;;41.00;27.75;;;4.20;99.90;;;;;;5036390;28;20091;-71
2021/03/10 02:50:28;;;;;;;42.75;26.90;;;4.20;99.90;;;;;;5036610;28;20038;-71
2021/03/10 02:52:54;;;;;;;42.38;26.83;;;4.10;99.90;;;;;;5036918;28;20500;-71
2021/03/10 02:55:20;;;;;;;41.92;27.23;;;4.20;99.90;;;;;;5036823;28;20033;-71
2021/03/10 02:57:47;;;;;;;42.38;26.65;;;4.30;99.90;;;;;;5036702;28;20043;-71
2021/03/10 03:00:18;;;;;;;45.90;28.35;;;4.30;99.90;;;;;;5036707;28;20033;-71
2021/03/10 03:02:44;;;;;;;41.28;27.05;;;4.20;99.90;;;;;;5036966;28;20480;-71
2021/03/10 03:05:11;;;;;;;42.58;27.35;;;4.20;99.90;;;;;;5036635;28;20047;-71
2021/03/10 03:07:38;;;;;;;41.55;28.10;;;4.30;99.90;;;;;;5036911;28;20041;-71
2021/03/10 03:10:10;;;;;;;40.17;26.13;;;4.40;99.90;;;;;;5036414;28;20065;-71
2021/03/10 03:12:40;;;;;;;41.72;27.38;;;4.50;99.80;;;;;;5036295;28;20088;-71
2021/03/10 03:15:07;;;;;;;41.45;27.08;;;4.40;99.80;;;;;;5036423;28;20049;-71
2021/03/10 03:17:34;;;;;;;43.33;27.63;;;4.30;99.90;;;;;;5036913;28;20098;-71
2021/03/10 03:20:00;;;;;;;41.65;27.52;;;4.30;99.90;;;;;;5036780;28;20041;-71
2021/03/10 03:22:26;;;;;;;39.13;27.10;;;4.30;99.80;;;;;;5036216;28;20045;-71
2021/03/10 03:24:54;;;;;;;41.20;26.88;;;4.40;99.90;;;;;;5036255;28;20409;-71
2021/03/10 03:27:26;;;;;;;40.95;26.70;;;4.40;99.90;;;;;;5036438;28;20048;-71
2021/03/10 03:30:00;;;;;;;43.55;26.25;;;4.30;99.90;;;;;;5036460;28;20067;-71
2021/03/10 03:32:28;;;;;;;43.42;27.65;;;4.50;99.20;;;;;;5036369;28;20075;-71
2021/03/10 03:34:55;;;;;;;43.58;27.48;;;4.60;99.40;;;;;;5035958;28;20128;-71
2021/03/10 03:37:23;;;;;;;39.75;26.83;;;4.50;98.40;;;;;;5036140;28;20033;-71
2021/03/10 03:39:50;;;;;;;41.70;26.92;;;4.50;99.80;;;;;;5036247;28;20042;-71
2021/03/10 03:42:19;;;;;;;46.47;27.83;;;4.50;98.90;;;;;;5035702;28;20054;-71
2021/03/10 03:44:46;;;;;;;38.75;26.75;;;4.50;99.10;;;;;;5036190;28;20136;-71
2021/03/10 03:47:15;;;;;;;44.70;27.83;;;4.40;99.50;;;;;;5035869;28;20063;-71
2021/03/10 03:49:43;;;;;;;39.97;26.45;;;4.60;97.10;;;;;;5036086;28;20492;-71
2021/03/10 03:52:09;;;;;;;43.85;27.83;;;4.50;97.60;;;;;;5036036;28;20038;-71
2021/03/10 03:54:35;;;;;;;40.45;26.52;;;4.60;98.10;;;;;;5035746;28;20044;-71
2021/03/10 03:57:01;;;;;;;43.53;28.42;;;4.70;97.00;;;;;;5035695;28;20065;-71
2021/03/10 03:59:27;;;;;;;41.38;26.92;;;4.70;96.50;;;;;;5034662;28;20103;-71
2021/03/10 04:01:53;;;;;;;40.47;26.70;;;4.60;97.30;;;;;;5035878;28;20050;-71
2021/03/10 04:04:18;;;;;;;41.97;27.73;;;4.60;96.80;;;;;;5035751;28;20392;-71
2021/03/10 04:06:47;;;;;;;39.25;25.85;;;4.70;95.60;;;;;;5035489;28;20048;-71
2021/03/10 04:09:13;;;;;;;40.20;26.98;;;4.70;96.00;;;;;;5035534;28;20064;-71
2021/03/10 04:11:41;;;;;;;42.47;26.85;;;4.60;96.60;;;;;;5035403;28;20037;-71
2021/03/10 04:14:06;;;;;;;40.22;27.58;;;4.60;96.30;;;;;;5035180;28;20496;-71
2021/03/10 04:16:33;;;;;;;38.83;26.00;;;4.40;97.00;;;;;;5035412;28;20057;-71
2021/03/10 04:18:58;;;;;;;40.67;26.45;;;4.50;96.00;;;;;;5035217;28;20045;-71
2021/03/10 04:21:24;;;;;;;39.15;26.50;;;4.70;95.10;;;;;;5034948;28;20042;-71
2021/03/10 04:23:50;;;;;;;41.50;27.13;;;4.60;96.20;;;;;;5034673;28;20077;-71
2021/03/10 04:26:16;;;;;;;38.58;26.88;;;4.70;94.50;;;;;;5035142;28;20095;-71
2021/03/10 04:28:41;;;;;;;43.30;26.85;;;4.80;94.20;;;;;;5035437;28;20037;-71
2021/03/10 04:31:07;;;;;;;40.92;26.80;;;4.80;94.00;;;;;;5034756;28;20045;-71
2021/03/10 04:33:33;;;;;;;39.67;26.40;;;4.70;96.40;;;;;;5035200;28;20519;-71
2021/03/10 04:35:59;;;;;;;40.15;26.30;;;4.50;95.60;;;;;;5035168;28;20122;-71
2021/03/10 04:38:25;;;;;;;37.15;24.65;;;4.60;96.00;;;;;;5035142;28;20042;-71
2021/03/10 04:40:50;;;;;;;38.05;25.48;;;4.80;93.90;;;;;;5034618;28;20029;-71
2021/03/10 04:43:16;;;;;;;40.28;25.95;;;4.80;93.40;;;;;;5034648;28;20048;-70
2021/03/10 04:45:42;;;;;;;42.45;26.58;;;4.90;92.90;;;;;;5034547;28;20046;-71
2021/03/10 04:48:08;;;;;;;41.47;25.15;;;4.90;92.50;;;;;;5035301;28;20648;-71
2021/03/10 04:50:34;;;;;;;37.25;25.20;;;4.80;92.10;;;;;;5034752;28;20060;-71
2021/03/10 04:53:00;;;;;;;40.40;27.17;;;4.70;93.10;;;;;;5034745;28;20518;-71
2021/03/10 04:55:26;;;;;;;38.67;25.83;;;4.70;93.00;;;;;;5034897;28;20041;-71
2021/03/10 04:57:52;;;;;;;38.42;25.60;;;4.70;93.00;;;;;;5034632;28;20035;-71
2021/03/10 05:00:18;;;;;;;36.25;25.45;;;4.60;92.20;;;;;;5034827;28;20116;-71
2021/03/10 05:02:44;;;;;;;37.83;25.67;;;4.70;93.10;;;;;;5034638;28;20492;-71
2021/03/10 05:05:10;;;;;;;39.20;24.88;;;4.60;93.50;;;;;;5034242;28;20040;-71
2021/03/10 05:07:36;;;;;;;35.85;23.92;;;4.70;92.20;;;;;;5033947;28;20461;-70
2021/03/10 05:10:06;;;;;;;39.17;25.00;;;4.70;90.40;;;;;;5033871;28;20075;-71
2021/03/10 05:12:32;;;;;;;38.08;24.67;;;4.80;90.80;;;;;;5034147;28;20117;-71
2021/03/10 05:14:58;;;;;;;36.40;23.67;;;4.80;92.00;;;;;;5034213;28;20187;-71
2021/03/10 05:17:25;;;;;;;34.75;24.15;;;4.80;91.00;;;;;;5034316;28;20056;-71
2021/03/10 05:19:53;;;;;;;36.55;23.88;;;4.70;91.10;;;;;;5034727;28;20084;-71
2021/03/10 05:22:19;;;;;;;37.72;24.25;;;4.70;91.40;;;;;;5034339;28;20044;-71
2021/03/10 05:24:45;;;;;;;34.50;23.52;;;4.80;91.50;;;;;;5034844;28;20037;-71
2021/03/10 05:27:11;;;;;;;40.47;24.83;;;4.60;91.20;;;;;;5034436;28;20041;-71
2021/03/10 05:29:37;;;;;;;36.80;24.80;;;4.80;90.90;;;;;;5034410;28;20045;-71
2021/03/10 05:32:03;;;;;;;36.55;23.45;;;4.80;92.30;;;;;;5034278;28;20064;-71
2021/03/10 05:34:28;;;;;;;39.00;24.60;;;4.60;92.40;;;;;;5034271;28;20097;-71
2021/03/10 05:36:55;;;;;;;36.00;23.50;;;4.50;92.80;;;;;;5034648;28;20511;-71
2021/03/10 05:39:20;;;;;;;33.33;21.23;;;4.40;93.20;;;;;;5034715;28;20060;-71
2021/03/10 05:41:47;;;;;;;36.10;22.20;;;4.50;93.10;;;;;;5016882;28;20481;-71
2021/03/10 05:44:13;;;;;;;33.22;20.35;;;4.60;92.20;;;;;;5033944;28;20045;-71
2021/03/10 05:46:39;;;;;;;34.80;21.35;;;4.50;91.20;;;;;;5034359;28;20045;-71
2021/03/10 05:49:06;;;;;;;28.95;18.88;;;4.80;90.00;;;;;;5034779;28;20633;-71
2021/03/10 05:51:33;;;;;;;31.10;19.88;;;4.70;90.10;;;;;;5033104;28;20069;-71
2021/03/10 05:54:00;;;;;;;32.50;20.73;;;4.80;88.80;;;;;;5034633;28;20068;-70
2021/03/10 05:56:26;;;;;;;32.75;19.80;;;4.90;88.70;;;;;;5034428;28;20029;-71
2021/03/10 05:58:59;;;;;;;33.10;19.77;;;5.00;84.40;;;;;;5034244;28;20059;-71
2021/03/10 06:01:25;;;;;;;28.70;19.02;;;4.80;88.60;;;;;;5034437;28;20052;-71
2021/03/10 06:03:56;;;;;;;31.20;20.35;;;4.70;90.20;;;;;;5034097;28;20048;-71
2021/03/10 06:06:22;;;;;;;31.58;20.77;;;4.70;90.00;;;;;;5034334;28;20061;-71
2021/03/10 06:08:48;;;;;;;31.27;20.70;;;4.50;90.20;;;;;;5034556;28;20041;-71
2021/03/10 06:11:25;;;;;;;32.17;20.15;;;4.40;92.40;;;;;;5034279;28;20040;-70
2021/03/10 06:13:52;;;;;;;31.25;21.13;;;4.10;94.90;;;;;;5034039;28;20132;-71
2021/03/10 06:16:25;;;;;;;32.05;19.98;;;3.90;99.20;;;;;;5034053;28;20492;-71
2021/03/10 06:19:04;;;;;;;30.40;20.35;;;3.80;98.80;;;;;;5033667;28;20041;-70
2021/03/10 06:21:31;;;;;;;30.50;19.23;;;3.70;99.90;;;;;;5033828;28;20047;-70
2021/03/10 06:24:04;;;;;;;34.75;20.67;;;3.70;99.90;;;;;;5037335;28;20052;-70
2021/03/10 06:26:35;;;;;;;34.15;22.58;;;3.70;99.90;;;;;;5037314;28;20076;-70
2021/03/10 06:29:12;;;;;;;36.45;22.25;;;3.70;99.90;;;;;;5037083;28;20575;-71
2021/03/10 06:31:38;;;;;;;38.47;22.33;;;3.70;99.90;;;;;;5019491;28;20459;-71
2021/03/10 06:34:26;;;;;;;31.85;20.38;;;3.70;99.90;;;;;;5036986;28;20041;-71
2021/03/10 06:36:52;;;;;;;29.17;19.00;;;3.80;99.90;;;;;;5037126;28;20042;-72
2021/03/10 06:39:29;;;;;;;32.05;19.58;;;4.00;98.20;;;;;;5032174;28;20029;-71
2021/03/10 06:41:56;;;;;;;34.35;21.08;;;4.20;97.60;;;;;;5033587;28;20049;-71
2021/03/10 06:44:28;;;;;;;33.60;19.40;;;4.20;96.40;;;;;;5034685;28;20036;-71
2021/03/10 06:47:00;;;;;;;29.80;18.60;;;4.30;99.90;;;;;;5018431;28;20053;-71
2021/03/10 06:49:28;;;;;;;28.55;18.50;;;4.30;97.80;;;;;;5036499;28;20124;-71
2021/03/10 06:52:00;;;;;;;32.25;19.67;;;4.20;97.70;;;;;;5036388;28;20041;-71
2021/03/10 06:54:27;;;;;;;37.25;19.35;;;4.20;99.50;;;;;;5036614;28;20037;-71
2021/03/10 06:57:07;;;;;;;27.35;18.05;;;4.30;97.30;;;;;;5036461;28;20492;-71
2021/03/10 06:59:47;;;;;;;27.48;17.85;;;4.40;97.60;;;;;;5036768;28;20044;-71
2021/03/10 07:02:33;;;;;;;30.77;19.75;;;4.30;99.90;;;;;;5035247;28;20503;-70
2021/03/10 07:05:00;;;;;;;32.55;19.10;;;4.30;99.90;;;;;;5036737;28;20045;-71
2021/03/10 07:07:28;;;;;;;32.88;19.60;;;4.20;99.90;;;;;;5036375;28;20046;-71
2021/03/10 07:09:54;;;;;;;31.60;18.73;;;4.20;99.90;;;;;;5035451;28;20041;-71
2021/03/10 07:12:22;;;;;;;29.50;19.50;;;4.30;99.90;;;;;;5018611;28;20435;-71
2021/03/10 07:14:48;;;;;;;38.17;20.85;;;4.30;99.90;;;;;;5018834;28;20377;-71
2021/03/10 07:17:17;;;;;;;37.67;23.90;;;4.30;99.90;;;;;;5036370;28;20425;-71
2021/03/10 07:19:44;;;;;;;25.70;18.25;;;4.40;99.90;;;;;;5036674;28;20098;-71
2021/03/10 07:22:14;;;;;;;29.27;18.48;;;4.50;99.90;;;;;;5036603;28;20037;-71
2021/03/10 07:24:41;;;;;;;33.00;18.30;;;4.70;99.80;;;;;;5036589;28;20129;-71
2021/03/10 07:27:09;;;;;;;28.20;18.27;;;4.90;97.20;;;;;;5035257;28;20037;-71
2021/03/10 07:29:40;;;;;;;28.15;17.27;;;5.10;96.80;;;;;;5036128;28;20520;-71
2021/03/10 07:32:07;;;;;;;25.10;17.45;;;5.10;94.30;;;;;;5036432;28;20047;-71
2021/03/10 07:34:34;;;;;;;24.85;15.95;;;5.20;93.20;;;;;;5036268;28;20037;-70
2021/03/10 07:37:15;;;;;;;27.15;16.83;;;5.20;91.50;;;;;;5018549;28;20388;-71
2021/03/10 07:39:41;;;;;;;25.02;15.63;;;5.30;92.00;;;;;;5036392;28;20033;-71
2021/03/10 07:42:16;;;;;;;23.77;15.45;;;5.30;90.10;;;;;;5036158;28;20047;-71
2021/03/10 07:44:54;;;;;;;23.13;15.52;;;5.30;92.10;;;;;;5036792;28;20037;-71
2021/03/10 07:47:19;;;;;;;25.33;15.90;;;5.40;90.20;;;;;;5028326;28;20048;-71
2021/03/10 07:50:00;;;;;;;22.67;15.65;;;5.50;88.90;;;;;;5025870;28;20041;-71
2021/03/10 07:52:28;;;;;;;25.05;15.93;;;5.60;90.00;;;;;;5031620;28;20049;-71
2021/03/10 07:55:02;;;;;;;22.40;15.55;;;5.70;89.10;;;;;;5033756;28;20496;-71
2021/03/10 07:57:28;;;;;;;23.30;16.02;;;5.70;88.10;;;;;;5034191;28;20041;-71
2021/03/10 08:00:00;;;;;;;22.85;15.05;;;5.80;87.60;;;;;;5031646;28;20048;-71
2021/03/10 08:02:27;;;;;;;21.63;14.05;;;5.90;87.10;;;;;;5013426;28;20053;-70
2021/03/10 08:04:58;;;;;;;23.80;14.93;;;6.00;86.20;;;;;;5031586;28;20099;-72
2021/03/10 08:07:29;;;;;;;21.63;15.13;;;6.00;86.40;;;;;;5029798;28;20072;-70
2021/03/10 08:09:55;;;;;;;;;;;6.10;90.20;;;;;;5032145;28;20045;-69
2021/03/10 08:12:41;;;;;;;20.30;13.05;;;6.20;84.80;;;;;;5031168;28;19916;-70
2021/03/10 08:15:19;;;;;;;21.98;13.75;;;6.30;83.50;;;;;;5029514;28;20033;-70
2021/03/10 08:17:45;;;;;;;23.17;14.55;;;6.30;85.10;;;;;;5030602;28;20041;-69
2021/03/10 08:20:15;;;;;;;22.98;14.80;;;6.30;85.20;;;;;;5031232;28;20041;-70
2021/03/10 08:22:44;;;;;;;20.30;13.10;;;6.40;85.60;;;;;;5013015;28;20045;-69
2021/03/10 08:25:14;;;;;;;21.77;13.60;;;6.40;83.70;;;;;;5032335;28;20049;-69
2021/03/10 08:27:42;;;;;;;19.98;13.75;;;6.40;82.90;;;;;;5031968;28;20104;-69
2021/03/10 08:30:11;;;;;;;20.40;13.15;;;6.40;83.00;;;;;;5029948;28;20041;-70
2021/03/10 08:32:38;;;;;;;17.70;12.13;;;6.60;82.30;;;;;;5030262;28;20091;-70
2021/03/10 08:35:14;;;;;;;22.95;12.70;;;6.50;77.80;;;;;;5030732;28;20046;-70
2021/03/10 08:37:41;;;;;;;18.83;12.98;;;6.70;79.00;;;;;;5030296;28;20075;-70
2021/03/10 08:40:10;;;;;;;19.80;13.20;;;6.80;80.30;;;;;;5032485;28;20526;-70
2021/03/10 08:42:37;;;;;;;21.30;13.40;;;6.80;82.10;;;;;;5030102;28;20044;-70
2021/03/10 08:45:04;;;;;;;21.73;14.20;;;6.80;80.70;;;;;;5030535;28;20041;-70
2021/03/10 08:47:31;;;;;;;20.42;13.80;;;7.00;78.10;;;;;;5030972;28;20048;-72
2021/03/10 08:49:59;;;;;;;20.88;13.77;;;7.00;80.70;;;;;;5032635;28;20087;-72
2021/03/10 08:52:27;;;;;;;17.92;13.27;;;7.00;79.00;;;;;;5033855;28;20095;-73
2021/03/10 08:55:03;;;;;;;18.10;12.75;;;7.10;78.70;;;;;;5028243;28;20505;-73
2021/03/10 08:57:34;;;;;;;19.63;12.73;;;7.10;76.80;;;;;;5030265;28;20041;-73
2021/03/10 09:00:13;;;;;;;18.52;12.65;;;7.10;78.90;;;;;;5029563;28;20550;-73
2021/03/10 09:02:40;;;;;;;23.85;14.00;;;7.10;78.00;;;;;;5031197;28;20142;-73
2021/03/10 09:05:07;;;;;;;19.27;13.27;;;7.20;78.60;;;;;;5032187;28;20045;-73
2021/03/10 09:07:33;;;;;;;17.60;12.32;;;7.30;75.40;;;;;;5032236;28;20052;-73
2021/03/10 09:10:01;;;;;;;22.10;13.00;;;7.40;71.90;;;;;;5031838;28;20041;-73
2021/03/10 09:12:28;;;;;;;18.17;13.10;;;7.40;72.70;;;;;;5028581;28;20045;-72
2021/03/10 09:14:55;;;;;;;20.42;14.10;;;7.40;75.80;;;;;;5032436;28;20041;-73
2021/03/10 09:17:37;;;;;;;20.88;14.63;;;7.50;77.20;;;;;;5028727;28;20041;-72
2021/03/10 09:20:10;;;;;;;25.58;15.57;;;7.60;75.60;;;;;;5031969;28;20052;-73
2021/03/10 09:22:44;;;;;;;21.88;15.18;;;7.60;79.30;;;;;;5030511;28;20046;-72
2021/03/10 09:25:12;;;;;;;22.85;14.88;;;7.70;74.70;;;;;;5014374;28;20052;-73
2021/03/10 09:27:39;;;;;;;22.98;15.52;;;7.60;74.40;;;;;;5030405;28;20577;-73
2021/03/10 09:30:26;;;;;;;24.67;16.83;;;7.60;75.00;;;;;;5032388;28;20120;-73
2021/03/10 09:32:53;;;;;;;23.30;15.90;;;7.80;73.90;;;;;;5029856;28;20041;-73
2021/03/10 09:35:28;;;;;;;26.98;18.02;;;7.70;74.70;;;;;;5030113;28;20045;-72
2021/03/10 09:37:56;;;;;;;25.92;17.05;;;7.80;73.90;;;;;;5029983;28;20094;-73
2021/03/10 09:40:46;;;;;;;26.35;17.80;;;7.80;74.80;;;;;;5031548;28;20075;-73
2021/03/10 09:43:19;;;;;;;26.45;17.08;;;7.80;75.20;;;;;;5027972;28;20053;-73
2021/03/10 09:45:47;;;;;;;28.85;18.50;;;7.80;76.10;;;;;;5027994;28;20048;-73
2021/03/10 09:48:18;;;;;;;26.27;17.25;;;7.80;77.20;;;;;;5032741;28;20041;-73
2021/03/10 09:50:48;;;;;;;29.52;19.05;;;7.90;74.60;;;;;;5027636;28;20037;-73
2021/03/10 09:53:14;;;;;;;28.67;19.67;;;8.00;73.70;;;;;;5012961;28;20098;-72
2021/03/10 09:55:41;;;;;;;30.98;19.52;;;8.10;75.10;;;;;;5030404;28;20120;-73
2021/03/10 09:58:08;;;;;;;32.90;21.23;;;8.00;75.90;;;;;;5018243;28;20078;-72
2021/03/10 10:00:34;;;;;;;32.88;22.58;;;8.10;76.20;;;;;;5033769;28;20052;-73
2021/03/10 10:03:00;;;;;;;31.88;20.70;;;8.20;77.10;;;;;;5031379;28;20088;-73
2021/03/10 10:05:35;;;;;;;33.13;20.50;;;8.20;76.60;;;;;;5036219;28;20057;-73
2021/03/10 10:08:03;;;;;;;31.83;20.80;;;8.30;77.50;;;;;;5030476;28;20041;-73
2021/03/10 10:10:32;;;;;;;30.60;21.40;;;8.30;77.50;;;;;;5017407;28;20048;-73
2021/03/10 10:12:58;;;;;;;33.70;21.80;;;8.30;78.10;;;;;;5032495;28;20034;-73
2021/03/10 10:15:26;;;;;;;32.30;21.05;;;8.30;76.90;;;;;;5033534;28;20041;-74
2021/03/10 10:17:54;;;;;;;34.72;22.70;;;8.30;76.60;;;;;;5031487;28;20053;-74
2021/03/10 10:20:22;;;;;;;35.30;21.92;;;8.40;77.80;;;;;;5033935;28;20044;-73
2021/03/10 10:22:48;;;;;;;31.95;21.75;;;8.40;77.00;;;;;;5033776;28;20071;-73
2021/03/10 10:25:16;;;;;;;31.73;21.58;;;8.50;78.20;;;;;;5031049;28;20516;-74
2021/03/10 10:27:44;;;;;;;33.13;22.50;;;8.50;79.10;;;;;;5035312;28;20056;-73
2021/03/10 10:30:13;;;;;;;33.28;22.67;;;8.50;78.30;;;;;;5014470;28;20053;-73
2021/03/10 10:32:40;;;;;;;33.17;22.40;;;8.60;78.50;;;;;;5032094;28;20514;-73
2021/03/10 10:35:06;;;;;;;32.40;22.50;;;8.60;76.90;;;;;;5035785;28;20050;-72
2021/03/10 10:37:33;;;;;;;32.70;22.13;;;8.60;78.50;;;;;;5034180;28;20073;-73
2021/03/10 10:39:59;;;;;;;34.53;23.20;;;8.70;78.90;;;;;;5032916;28;20033;-72
2021/03/10 10:42:26;;;;;;;31.13;20.10;;;8.70;78.00;;;;;;5032136;28;20048;-72
2021/03/10 10:44:52;;;;;;;32.58;22.77;;;8.80;78.00;;;;;;5033682;28;20264;-72
2021/03/10 10:47:19;;;;;;;33.22;20.85;;;8.80;79.20;;;;;;5035270;28;20041;-72
2021/03/10 10:49:45;;;;;;;33.42;22.17;;;8.90;75.90;;;;;;5032716;28;20064;-72
2021/03/10 10:52:11;;;;;;;33.00;21.30;;;9.00;78.40;;;;;;5033763;28;20033;-72
2021/03/10 10:54:37;;;;;;;31.52;22.02;;;9.10;79.40;;;;;;5035650;28;20652;-72
2021/03/10 10:57:03;;;;;;;30.60;21.75;;;9.20;80.00;;;;;;5033466;28;20033;-72
2021/03/10 10:59:29;;;;;;;30.75;21.85;;;9.30;76.50;;;;;;5032873;28;20535;-72
2021/03/10 11:01:55;;;;;;;33.60;21.52;;;9.30;75.10;;;;;;5035738;28;20489;-72
2021/03/10 11:04:21;;;;;;;33.28;22.55;;;9.40;76.80;;;;;;5035525;28;20133;-72
2021/03/10 11:06:48;;;;;;;34.88;22.55;;;9.30;77.10;;;;;;5032483;28;20443;-72
2021/03/10 11:09:13;;;;;;;35.35;23.27;;;9.40;77.50;;;;;;5030695;28;20519;-72
2021/03/10 11:11:40;;;;;;;32.50;22.42;;;9.60;79.50;;;;;;5033388;28;20041;-72
2021/03/10 11:14:06;;;;;;;33.13;21.75;;;9.60;76.40;;;;;;5035428;28;20045;-72
2021/03/10 11:16:32;;;;;;;36.15;23.63;;;9.70;75.30;;;;;;5032249;28;20060;-72
2021/03/10 11:18:58;;;;;;;33.55;22.20;;;9.70;79.40;;;;;;5031173;28;20041;-72
2021/03/10 11:21:24;;;;;;;31.13;21.75;;;9.70;79.20;;;;;;5035345;28;20044;-72
2021/03/10 11:23:50;;;;;;;30.80;21.75;;;9.90;78.40;;;;;;5035160;28;20084;-72
2021/03/10 11:26:16;;;;;;;31.08;21.95;;;9.90;75.70;;;;;;5032911;28;20107;-72
2021/03/10 11:28:42;;;;;;;33.83;22.45;;;10.00;76.40;;;;;;5032034;28;20037;-72
2021/03/10 11:31:08;;;;;;;31.25;22.00;;;10.00;74.30;;;;;;5031786;28;20516;-72
2021/03/10 11:33:35;;;;;;;32.40;22.77;;;9.90;75.60;;;;;;5032408;28;20500;-72
2021/03/10 11:36:02;;;;;;;31.85;21.65;;;9.90;77.10;;;;;;5033944;28;20179;-71
2021/03/10 11:38:29;;;;;;;29.88;21.45;;;10.10;76.60;;;;;;5029702;28;20037;-72
2021/03/10 11:40:55;;;;;;;38.17;23.67;;;10.00;73.50;;;;;;5029906;28;20051;-74
2021/03/10 11:43:21;;;;;;;29.58;21.60;;;10.10;76.20;;;;;;5028889;28;20045;-74
2021/03/10 11:45:47;;;;;;;33.10;22.70;;;10.10;75.00;;;;;;5032063;28;20520;-75
2021/03/10 11:48:13;;;;;;;33.00;23.65;;;10.10;74.60;;;;;;5031948;28;20044;-74
2021/03/10 11:50:39;;;;;;;34.50;23.50;;;10.20;76.80;;;;;;5033209;28;20034;-74
2021/03/10 11:53:06;;;;;;;33.20;22.35;;;10.10;75.60;;;;;;5031001;28;20052;-76
2021/03/10 11:55:32;;;;;;;35.10;23.15;;;10.30;79.00;;;;;;5032172;28;20045;-74
2021/03/10 11:57:59;;;;;;;37.30;24.17;;;10.40;77.00;;;;;;5031653;28;20124;-74
2021/03/10 12:00:25;;;;;;;32.30;23.42;;;10.40;80.60;;;;;;5031274;28;20041;-74
2021/03/10 12:02:52;;;;;;;36.08;23.67;;;10.30;77.40;;;;;;5034415;28;20122;-74
2021/03/10 12:05:18;;;;;;;33.78;23.23;;;10.40;79.80;;;;;;5033858;28;20064;-73
2021/03/10 12:07:45;;;;;;;30.92;22.00;;;10.60;79.90;;;;;;5031923;28;20061;-73
2021/03/10 12:10:11;;;;;;;30.92;22.00;;;10.60;77.20;;;;;;5032536;28;20050;-73
2021/03/10 12:12:37;;;;;;;32.65;21.58;;;10.60;74.70;;;;;;5034246;28;20033;-72
2021/03/10 12:15:04;;;;;;;31.23;21.40;;;10.70;76.10;;;;;;5033176;28;20099;-74
2021/03/10 12:17:31;;;;;;;32.58;21.40;;;10.80;74.70;;;;;;5031274;28;20095;-74
2021/03/10 12:19:57;;;;;;;30.50;21.35;;;10.70;73.00;;;;;;5030203;28;20081;-74
2021/03/10 12:22:23;;;;;;;31.02;21.88;;;10.70;74.90;;;;;;5031151;28;20037;-74
2021/03/10 12:24:49;;;;;;;31.30;21.40;;;10.70;71.70;;;;;;5030987;28;20049;-74
2021/03/10 12:27:24;;;;;;;31.17;21.10;;;10.80;73.40;;;;;;5031083;28;20034;-73
2021/03/10 12:30:01;;;;;;;29.63;18.55;;;10.90;76.80;;;;;;5033087;28;20042;-73
2021/03/10 12:32:27;;;;;;;27.77;18.02;;;11.00;74.60;;;;;;5032119;28;20049;-74
2021/03/10 12:34:55;;;;;;;25.30;17.25;;;11.00;69.60;;;;;;5033541;28;20037;-74
2021/03/10 12:37:22;;;;;;;24.52;17.15;;;11.20;69.20;;;;;;5030526;28;20063;-74
2021/03/10 12:39:47;;;;;;;24.45;17.20;;;11.30;73.60;;;;;;5030650;28;20033;-74
2021/03/10 12:42:14;;;;;;;24.55;16.77;;;11.30;68.60;;;;;;5010941;28;20118;-74